Baltic Marshall — C4KD2 — position and weather

sailwx.info

Track history (hours):
 
Tides and Currents Weather Stations Pressure Air Temp Water Temp Dewpoint Dewpoint Depression Visibility Wind Speed Wind Dir Waves Ship Positions

Baltic Marshall

Last reported at 2017-Apr-23 20:53 UTC. Time now 2017-Apr-23 21:50 UTC.
Position N 55°01' E 013°47'.

Length 183 m; draft 10.8 m.

Type: Ship (hazmat cat B). MMSI: 212118000.

Date/timePositionNaut miles runAvg speedWind from/ knotsBaromVisibWave heightAir tempDewpointWater temp
2017-Apr-23 20:53N 55°01' E 013°47'513.4
2017-Apr-23 20:30N 55°03' E 013°55'713.1
2017-Apr-23 20:00N 55°06' E 014°06'713.2
2017-Apr-23 19:30N 55°11' E 014°13'613.1
2017-Apr-23 19:01N 55°15' E 014°21'713.2
2017-Apr-23 18:30N 55°20' E 014°28'713.2
2017-Apr-23 18:01N 55°25' E 014°36'612.7
2017-Apr-23 17:30N 55°28' E 014°46'612.9
2017-Apr-23 17:00N 55°32' E 014°56'712.9
2017-Apr-23 16:30N 55°34' E 015°06'612.8
2017-Apr-23 16:01N 55°37' E 015°17'913.0
2017-Apr-23 15:18N 55°40' E 015°32'35312.1
2017-Apr-22 10:02N 59°40' E 023°35'012.7
2017-Apr-22 10:00N 59°40' E 023°36'612.7
2017-Apr-22 09:30N 59°42' E 023°47'612.6
2017-Apr-22 09:00N 59°44' E 023°59'713.0
2017-Apr-22 08:30N 59°45' E 024°12'6413.1
2017-Apr-22 03:38N 59°59' E 026°16'212.9
2017-Apr-22 03:30N 59°60' E 026°19'612.9
2017-Apr-22 03:00N 60°01' E 026°31'612.8
2017-Apr-22 02:30N 60°01' E 026°44'713.2
2017-Apr-22 02:00N 59°60' E 026°57'612.2
2017-Apr-22 01:30N 60°01' E 027°09'612.9
2017-Apr-22 01:00N 60°05' E 027°20'713.1
2017-Apr-22 00:30N 60°08' E 027°32'713.1
2017-Apr-22 00:00N 60°11' E 027°43'612.2
2017-Apr-21 23:30N 60°11' E 027°55'613.0
2017-Apr-21 23:00N 60°09' E 028°08'612.6
2017-Apr-21 22:30N 60°07' E 028°20'612.7
2017-Apr-21 22:00N 60°03' E 028°31'612.9
2017-Apr-21 21:30N 60°03' E 028°43'612.9
2017-Apr-21 21:00N 60°03' E 028°56'612.7
2017-Apr-21 20:30N 60°02' E 029°09'1211.4
2017-Apr-21 19:26N 60°01' E 029°33'511.4
2017-Apr-21 19:00N 59°59' E 029°42'4 9.0
2017-Apr-21 18:30N 59°57' E 029°50'510.1
2017-Apr-21 18:00N 59°55' E 029°60'4 9.0
2017-Apr-21 17:30N 59°54' E 030°08'1 2.3
2017-Apr-21 16:59N 59°53' E 030°10'0 0.0
2017-Apr-21 16:29N 59°53' E 030°10'0 0.0
2017-Apr-21 15:59N 59°53' E 030°10'0 0.0
2017-Apr-21 15:29N 59°53' E 030°10'0 0.0
2017-Apr-21 14:59N 59°53' E 030°10'0 0.0
2017-Apr-21 14:29N 59°53' E 030°10'0 0.0
2017-Apr-20 03:18N 59°53' E 030°10'0 0.4
2017-Apr-20 03:00N 59°53' E 030°10'2 4.5
2017-Apr-20 02:30N 59°54' E 030°06'510.6
2017-Apr-20 02:00N 59°56' E 029°56'611.0
2017-Apr-20 01:30N 59°59' E 029°46'510.7
2017-Apr-20 01:01N 60°00' E 029°36'611.2
2017-Apr-20 00:30N 60°01' E 029°25'3 5.3
2017-Apr-20 00:00N 60°03' E 029°21'3 7.0
2017-Apr-19 23:30N 60°06' E 029°20'0 0.1
2017-Apr-19 20:49N 60°06' E 029°20'0 0.0
2017-Apr-19 06:25N 60°06' E 029°20'0 0.0
2017-Apr-19 04:55N 60°06' E 029°20'0 0.0
2017-Apr-19 04:28N 60°06' E 029°20'0 0.0
2017-Apr-19 03:52N 60°06' E 029°20'0 0.1
2017-Apr-19 03:28N 60°07' E 029°20'9 0.3
2017-Apr-17 21:19N 60°02' E 029°04'413.4
2017-Apr-17 20:59N 60°02' E 028°55'613.4
2017-Apr-17 20:30N 60°03' E 028°42'611.4
2017-Apr-17 20:00N 60°02' E 028°31'613.1
2017-Apr-17 19:30N 60°05' E 028°20'713.1
2017-Apr-17 19:00N 60°08' E 028°08'713.3
2017-Apr-17 18:30N 60°10' E 027°55'612.6
2017-Apr-17 18:00N 60°09' E 027°42'713.3
2017-Apr-17 17:30N 60°06' E 027°31'713.1
2017-Apr-17 17:00N 60°03' E 027°19'713.3
2017-Apr-17 16:30N 59°59' E 027°08'612.8
2017-Apr-17 15:59N 59°58' E 026°55'713.7
2017-Apr-17 15:30N 59°59' E 026°42'713.4
2017-Apr-17 15:00N 59°58' E 026°29'713.7
2017-Apr-17 14:30N 59°56' E 026°15'6613.7
2017-Apr-17 09:44N 59°41' E 024°09'313.5
2017-Apr-17 09:30N 59°40' E 024°03'713.5
2017-Apr-17 09:00N 59°38' E 023°50'713.7
2017-Apr-17 08:29N 59°35' E 023°37'713.8
2017-Apr-17 08:00N 59°33' E 023°24'713.4
2017-Apr-17 07:30N 59°31' E 023°12'34012.9
2017-Apr-16 05:10N 55°39' E 015°30'412.6
2017-Apr-16 04:51N 55°37' E 015°24'512.5
2017-Apr-16 04:27N 55°35' E 015°16'612.8
2017-Apr-16 03:57N 55°32' E 015°06'612.7
2017-Apr-16 03:30N 55°29' E 014°57'612.7
2017-Apr-16 03:00N 55°26' E 014°47'612.5
2017-Apr-16 02:30N 55°23' E 014°37'612.1
2017-Apr-16 01:59N 55°18' E 014°30'612.0
2017-Apr-16 01:30N 55°14' E 014°24'611.2
2017-Apr-16 01:00N 55°11' E 014°16'612.3
2017-Apr-16 00:30N 55°11' E 014°05'612.3
2017-Apr-16 00:00N 55°11' E 013°54'612.3
2017-Apr-15 23:30N 55°11' E 013°44'612.0
2017-Apr-15 23:00N 55°12' E 013°33'612.3
2017-Apr-15 22:29N 55°12' E 013°22'612.5
2017-Apr-15 22:00N 55°12' E 013°11'613.2
2017-Apr-15 21:30N 55°14' E 013°00'713.4
2017-Apr-15 21:00N 55°15' E 012°49'713.5
2017-Apr-15 20:30N 55°18' E 012°38'713.6
2017-Apr-15 20:01N 55°25' E 012°40'713.7
2017-Apr-15 19:30N 55°32' E 012°42'4 8.3
2017-Apr-15 19:01N 55°36' E 012°42'5 9.6
2017-Apr-15 18:30N 55°41' E 012°41'612.3
2017-Apr-15 18:01N 55°47' E 012°42'713.2
2017-Apr-15 17:31N 55°53' E 012°40'613.0
2017-Apr-15 17:00N 55°60' E 012°40'611.7
2017-Apr-15 16:30N 56°05' E 012°36'510.9
2017-Apr-15 16:00N 56°08' E 012°28'510.4
2017-Apr-15 15:30N 56°11' E 012°20'5412.4
2017-Apr-15 11:07N 57°01' E 011°42'1512.9
2017-Apr-15 09:59N 57°15' E 011°32'612.9
2017-Apr-15 09:31N 57°20' E 011°28'612.7
2017-Apr-15 09:00N 57°26' E 011°25'612.8
2017-Apr-15 08:31N 57°31' E 011°17'612.9
2017-Apr-15 08:01N 57°36' E 011°08'713.0
2017-Apr-15 07:30N 57°40' E 010°59'713.0
2017-Apr-15 06:59N 57°45' E 010°50'612.5
2017-Apr-15 06:30N 57°48' E 010°40'714.1
2017-Apr-15 06:00N 57°48' E 010°27'714.3
2017-Apr-15 05:30N 57°48' E 010°14'714.1
2017-Apr-15 04:59N 57°47' E 009°60'713.8
2017-Apr-15 04:28N 57°47' E 009°47'17313.5
2017-Apr-14 15:36N 55°32' E 006°28'113.8
2017-Apr-14 15:31N 55°31' E 006°27'713.6
2017-Apr-14 15:00N 55°25' E 006°20'713.6
2017-Apr-14 14:29N 55°19' E 006°14'1313.5
2017-Apr-14 13:30N 55°08' E 006°03'713.4
2017-Apr-14 13:00N 55°02' E 005°58'713.4
2017-Apr-14 12:29N 54°56' E 005°52'713.4
2017-Apr-14 12:00N 54°50' E 005°47'713.4
2017-Apr-14 11:29N 54°44' E 005°41'713.5
2017-Apr-14 10:59N 54°38' E 005°35'713.7
2017-Apr-14 10:30N 54°32' E 005°29'714.0
2017-Apr-14 10:00N 54°27' E 005°21'714.0
2017-Apr-14 09:30N 54°22' E 005°13'714.0
2017-Apr-14 09:00N 54°17' E 005°04'714.0
2017-Apr-14 08:29N 54°12' E 004°56'714.0
2017-Apr-14 07:59N 54°08' E 004°46'713.3
2017-Apr-14 07:29N 54°02' E 004°40'713.6
2017-Apr-14 07:00N 53°56' E 004°36'713.7
2017-Apr-14 06:30N 53°50' E 004°29'714.0
2017-Apr-14 06:00N 53°45' E 004°21'714.0
2017-Apr-14 05:30N 53°41' E 004°11'713.9
2017-Apr-14 04:59N 53°37' E 004°02'713.8
2017-Apr-14 04:29N 53°33' E 003°52'713.5
2017-Apr-14 03:58N 53°28' E 003°45'713.8
2017-Apr-14 03:26N 53°21' E 003°39'613.8
2017-Apr-14 03:00N 53°16' E 003°34'713.5
2017-Apr-14 02:29N 53°09' E 003°30'713.3
2017-Apr-14 01:58N 53°03' E 003°26'613.1
2017-Apr-14 01:29N 52°57' E 003°22'612.7
2017-Apr-14 01:00N 52°51' E 003°19'612.5
2017-Apr-14 00:29N 52°45' E 003°19'612.4
2017-Apr-14 00:00N 52°39' E 003°18'612.5
2017-Apr-13 23:30N 52°33' E 003°17'612.3
2017-Apr-13 22:59N 52°26' E 003°16'612.1
2017-Apr-13 22:29N 52°20' E 003°15'612.0
2017-Apr-13 21:59N 52°15' E 003°12'612.0
2017-Apr-13 21:29N 52°09' E 003°09'612.0
2017-Apr-13 21:00N 52°04' E 003°03'  
Track history (hours):
 
Tides and Currents Weather Stations Pressure Air Temp Water Temp Dewpoint Dewpoint Depression Visibility Wind Speed Wind Dir Waves Ship Positions

Baltic Marshall

Last reported at 2017-Apr-23 20:53 UTC. Time now 2017-Apr-23 21:50 UTC.
Position N 55°01' E 013°47'.

Length 183 m; draft 10.8 m.

Type: Ship (hazmat cat B). MMSI: 212118000.

Date/timePositionNaut miles runAvg speedWind from/ knotsBaromVisibWave heightAir tempDewpointWater temp
2017-Apr-23 20:53N 55°01' E 013°47'513.4
2017-Apr-23 20:30N 55°03' E 013°55'713.1
2017-Apr-23 20:00N 55°06' E 014°06'713.2
2017-Apr-23 19:30N 55°11' E 014°13'613.1
2017-Apr-23 19:01N 55°15' E 014°21'713.2
2017-Apr-23 18:30N 55°20' E 014°28'713.2
2017-Apr-23 18:01N 55°25' E 014°36'612.7
2017-Apr-23 17:30N 55°28' E 014°46'612.9
2017-Apr-23 17:00N 55°32' E 014°56'712.9
2017-Apr-23 16:30N 55°34' E 015°06'612.8
2017-Apr-23 16:01N 55°37' E 015°17'913.0
2017-Apr-23 15:18N 55°40' E 015°32'35312.1
2017-Apr-22 10:02N 59°40' E 023°35'012.7
2017-Apr-22 10:00N 59°40' E 023°36'612.7
2017-Apr-22 09:30N 59°42' E 023°47'612.6
2017-Apr-22 09:00N 59°44' E 023°59'713.0
2017-Apr-22 08:30N 59°45' E 024°12'6413.1
2017-Apr-22 03:38N 59°59' E 026°16'212.9
2017-Apr-22 03:30N 59°60' E 026°19'612.9
2017-Apr-22 03:00N 60°01' E 026°31'612.8
2017-Apr-22 02:30N 60°01' E 026°44'713.2
2017-Apr-22 02:00N 59°60' E 026°57'612.2
2017-Apr-22 01:30N 60°01' E 027°09'612.9
2017-Apr-22 01:00N 60°05' E 027°20'713.1
2017-Apr-22 00:30N 60°08' E 027°32'713.1
2017-Apr-22 00:00N 60°11' E 027°43'612.2
2017-Apr-21 23:30N 60°11' E 027°55'613.0
2017-Apr-21 23:00N 60°09' E 028°08'612.6
2017-Apr-21 22:30N 60°07' E 028°20'612.7
2017-Apr-21 22:00N 60°03' E 028°31'612.9
2017-Apr-21 21:30N 60°03' E 028°43'612.9
2017-Apr-21 21:00N 60°03' E 028°56'612.7
2017-Apr-21 20:30N 60°02' E 029°09'1211.4
2017-Apr-21 19:26N 60°01' E 029°33'511.4
2017-Apr-21 19:00N 59°59' E 029°42'4 9.0
2017-Apr-21 18:30N 59°57' E 029°50'510.1
2017-Apr-21 18:00N 59°55' E 029°60'4 9.0
2017-Apr-21 17:30N 59°54' E 030°08'1 2.3
2017-Apr-21 16:59N 59°53' E 030°10'0 0.0
2017-Apr-21 16:29N 59°53' E 030°10'0 0.0
2017-Apr-21 15:59N 59°53' E 030°10'0 0.0
2017-Apr-21 15:29N 59°53' E 030°10'0 0.0
2017-Apr-21 14:59N 59°53' E 030°10'0 0.0
2017-Apr-21 14:29N 59°53' E 030°10'0 0.0
2017-Apr-20 03:18N 59°53' E 030°10'0 0.4
2017-Apr-20 03:00N 59°53' E 030°10'2 4.5
2017-Apr-20 02:30N 59°54' E 030°06'510.6
2017-Apr-20 02:00N 59°56' E 029°56'611.0
2017-Apr-20 01:30N 59°59' E 029°46'510.7
2017-Apr-20 01:01N 60°00' E 029°36'611.2
2017-Apr-20 00:30N 60°01' E 029°25'3 5.3
2017-Apr-20 00:00N 60°03' E 029°21'3 7.0
2017-Apr-19 23:30N 60°06' E 029°20'0 0.1
2017-Apr-19 20:49N 60°06' E 029°20'0 0.0
2017-Apr-19 06:25N 60°06' E 029°20'0 0.0
2017-Apr-19 04:55N 60°06' E 029°20'0 0.0
2017-Apr-19 04:28N 60°06' E 029°20'0 0.0
2017-Apr-19 03:52N 60°06' E 029°20'0 0.1
2017-Apr-19 03:28N 60°07' E 029°20'9 0.3
2017-Apr-17 21:19N 60°02' E 029°04'413.4
2017-Apr-17 20:59N 60°02' E 028°55'613.4
2017-Apr-17 20:30N 60°03' E 028°42'611.4
2017-Apr-17 20:00N 60°02' E 028°31'613.1
2017-Apr-17 19:30N 60°05' E 028°20'713.1
2017-Apr-17 19:00N 60°08' E 028°08'713.3
2017-Apr-17 18:30N 60°10' E 027°55'612.6
2017-Apr-17 18:00N 60°09' E 027°42'713.3
2017-Apr-17 17:30N 60°06' E 027°31'713.1
2017-Apr-17 17:00N 60°03' E 027°19'713.3
2017-Apr-17 16:30N 59°59' E 027°08'612.8
2017-Apr-17 15:59N 59°58' E 026°55'713.7
2017-Apr-17 15:30N 59°59' E 026°42'713.4
2017-Apr-17 15:00N 59°58' E 026°29'713.7
2017-Apr-17 14:30N 59°56' E 026°15'6613.7
2017-Apr-17 09:44N 59°41' E 024°09'313.5
2017-Apr-17 09:30N 59°40' E 024°03'713.5
2017-Apr-17 09:00N 59°38' E 023°50'713.7
2017-Apr-17 08:29N 59°35' E 023°37'713.8
2017-Apr-17 08:00N 59°33' E 023°24'713.4
2017-Apr-17 07:30N 59°31' E 023°12'34012.9
2017-Apr-16 05:10N 55°39' E 015°30'412.6
2017-Apr-16 04:51N 55°37' E 015°24'512.5
2017-Apr-16 04:27N 55°35' E 015°16'612.8
2017-Apr-16 03:57N 55°32' E 015°06'612.7
2017-Apr-16 03:30N 55°29' E 014°57'612.7
2017-Apr-16 03:00N 55°26' E 014°47'612.5
2017-Apr-16 02:30N 55°23' E 014°37'612.1
2017-Apr-16 01:59N 55°18' E 014°30'612.0
2017-Apr-16 01:30N 55°14' E 014°24'611.2
2017-Apr-16 01:00N 55°11' E 014°16'612.3
2017-Apr-16 00:30N 55°11' E 014°05'612.3
2017-Apr-16 00:00N 55°11' E 013°54'612.3
2017-Apr-15 23:30N 55°11' E 013°44'612.0
2017-Apr-15 23:00N 55°12' E 013°33'612.3
2017-Apr-15 22:29N 55°12' E 013°22'612.5
2017-Apr-15 22:00N 55°12' E 013°11'613.2
2017-Apr-15 21:30N 55°14' E 013°00'713.4
2017-Apr-15 21:00N 55°15' E 012°49'713.5
2017-Apr-15 20:30N 55°18' E 012°38'713.6
2017-Apr-15 20:01N 55°25' E 012°40'713.7
2017-Apr-15 19:30N 55°32' E 012°42'4 8.3
2017-Apr-15 19:01N 55°36' E 012°42'5 9.6
2017-Apr-15 18:30N 55°41' E 012°41'612.3
2017-Apr-15 18:01N 55°47' E 012°42'713.2
2017-Apr-15 17:31N 55°53' E 012°40'613.0
2017-Apr-15 17:00N 55°60' E 012°40'611.7
2017-Apr-15 16:30N 56°05' E 012°36'510.9
2017-Apr-15 16:00N 56°08' E 012°28'510.4
2017-Apr-15 15:30N 56°11' E 012°20'5412.4
2017-Apr-15 11:07N 57°01' E 011°42'1512.9
2017-Apr-15 09:59N 57°15' E 011°32'612.9
2017-Apr-15 09:31N 57°20' E 011°28'612.7
2017-Apr-15 09:00N 57°26' E 011°25'612.8
2017-Apr-15 08:31N 57°31' E 011°17'612.9
2017-Apr-15 08:01N 57°36' E 011°08'713.0
2017-Apr-15 07:30N 57°40' E 010°59'713.0
2017-Apr-15 06:59N 57°45' E 010°50'612.5
2017-Apr-15 06:30N 57°48' E 010°40'714.1
2017-Apr-15 06:00N 57°48' E 010°27'714.3
2017-Apr-15 05:30N 57°48' E 010°14'714.1
2017-Apr-15 04:59N 57°47' E 009°60'713.8
2017-Apr-15 04:28N 57°47' E 009°47'17313.5
2017-Apr-14 15:36N 55°32' E 006°28'113.8
2017-Apr-14 15:31N 55°31' E 006°27'713.6
2017-Apr-14 15:00N 55°25' E 006°20'713.6
2017-Apr-14 14:29N 55°19' E 006°14'1313.5
2017-Apr-14 13:30N 55°08' E 006°03'713.4
2017-Apr-14 13:00N 55°02' E 005°58'713.4
2017-Apr-14 12:29N 54°56' E 005°52'713.4
2017-Apr-14 12:00N 54°50' E 005°47'713.4
2017-Apr-14 11:29N 54°44' E 005°41'713.5
2017-Apr-14 10:59N 54°38' E 005°35'713.7
2017-Apr-14 10:30N 54°32' E 005°29'714.0
2017-Apr-14 10:00N 54°27' E 005°21'714.0
2017-Apr-14 09:30N 54°22' E 005°13'714.0
2017-Apr-14 09:00N 54°17' E 005°04'714.0
2017-Apr-14 08:29N 54°12' E 004°56'714.0
2017-Apr-14 07:59N 54°08' E 004°46'713.3
2017-Apr-14 07:29N 54°02' E 004°40'713.6
2017-Apr-14 07:00N 53°56' E 004°36'713.7
2017-Apr-14 06:30N 53°50' E 004°29'714.0
2017-Apr-14 06:00N 53°45' E 004°21'714.0
2017-Apr-14 05:30N 53°41' E 004°11'713.9
2017-Apr-14 04:59N 53°37' E 004°02'713.8
2017-Apr-14 04:29N 53°33' E 003°52'713.5
2017-Apr-14 03:58N 53°28' E 003°45'713.8
2017-Apr-14 03:26N 53°21' E 003°39'613.8
2017-Apr-14 03:00N 53°16' E 003°34'713.5
2017-Apr-14 02:29N 53°09' E 003°30'713.3
2017-Apr-14 01:58N 53°03' E 003°26'613.1
2017-Apr-14 01:29N 52°57' E 003°22'612.7
2017-Apr-14 01:00N 52°51' E 003°19'612.5
2017-Apr-14 00:29N 52°45' E 003°19'612.4
2017-Apr-14 00:00N 52°39' E 003°18'612.5
2017-Apr-13 23:30N 52°33' E 003°17'612.3
2017-Apr-13 22:59N 52°26' E 003°16'612.1
2017-Apr-13 22:29N 52°20' E 003°15'612.0
2017-Apr-13 21:59N 52°15' E 003°12'612.0
2017-Apr-13 21:29N 52°09' E 003°09'612.0
2017-Apr-13 21:00N 52°04' E 003°03'  

Dump ship's entire track history